createdAt,value
2022-11-14T00:01:37.014Z,35.8
2022-11-14T00:07:05.262Z,35.8
2022-11-14T00:12:43.578Z,35.8
2022-11-14T00:17:34.640Z,35.7
2022-11-14T00:23:13.163Z,35.6
2022-11-14T00:28:50.904Z,35.6
2022-11-14T00:34:29.054Z,35.6
2022-11-14T00:39:36.477Z,35.6
2022-11-14T00:44:58.842Z,35.4
2022-11-14T00:50:36.434Z,35.4
2022-11-14T00:56:14.330Z,35.4
2022-11-14T01:01:57.639Z,35.4
2022-11-14T01:07:35.364Z,35.3
2022-11-14T01:13:14.037Z,35.3
2022-11-14T01:18:35.964Z,35.2
2022-11-14T01:24:03.252Z,35.2
2022-11-14T01:29:41.103Z,35.1
2022-11-14T01:35:18.399Z,35.1
2022-11-14T01:40:41.201Z,35.1
2022-11-14T01:46:24.483Z,35
2022-11-14T01:52:01.869Z,35
2022-11-14T01:57:39.520Z,34.9
2022-11-14T02:02:47.051Z,35.1
2022-11-14T02:08:30.267Z,35.9
2022-11-14T02:14:07.679Z,36.6
2022-11-14T02:20:22.176Z,37.4
2022-11-14T02:25:44.435Z,38
2022-11-14T02:31:08.422Z,38.7
2022-11-14T02:36:52.005Z,39.4
2022-11-14T02:42:30.091Z,40.1
2022-11-14T02:48:08.209Z,40.7
2022-11-14T02:53:46.247Z,41.4
2022-11-14T02:58:39.045Z,42
2022-11-14T03:03:58.257Z,42.7
2022-11-14T03:08:34.376Z,43.3
2022-11-14T03:13:56.705Z,43.6
2022-11-14T03:19:19.669Z,43.7
2022-11-14T03:24:42.203Z,43.8
2022-11-14T03:30:18.984Z,43.8
2022-11-14T03:35:57.372Z,43.8
2022-11-14T03:41:37.745Z,43.8
2022-11-14T03:47:14.459Z,43.7
2022-11-14T03:52:52.793Z,43.6
2022-11-14T03:57:59.952Z,43.6
2022-11-14T04:03:06.673Z,43.5
2022-11-14T04:08:46.008Z,43.4
2022-11-14T04:14:28.613Z,43.4
2022-11-14T04:20:10.261Z,43.4
2022-11-14T04:25:18.361Z,43.3
2022-11-14T04:30:55.943Z,43.3
2022-11-14T04:36:17.998Z,43.2
2022-11-14T04:41:57.633Z,43.1
2022-11-14T04:47:36.214Z,43.1
2022-11-14T04:52:57.482Z,43
2022-11-14T04:58:19.984Z,42.9
2022-11-14T05:03:48.198Z,42.9
2022-11-14T05:09:26.146Z,42.8
2022-11-14T05:15:07.697Z,42.7
2022-11-14T05:20:29.176Z,42.6
2022-11-14T05:26:10.067Z,42.6
2022-11-14T05:31:01.000Z,42.5
2022-11-14T05:36:27.172Z,42.4
2022-11-14T05:41:33.238Z,42.4
2022-11-14T05:46:55.249Z,42.3
2022-11-14T05:52:33.440Z,42.2
2022-11-14T05:58:15.480Z,42.1
2022-11-14T06:03:45.639Z,42
2022-11-14T06:09:24.197Z,41.9
2022-11-14T06:15:02.084Z,41.8
2022-11-14T06:20:40.631Z,41.8
2022-11-14T06:26:17.723Z,41.7
2022-11-14T06:31:59.460Z,41.6
2022-11-14T06:37:36.697Z,41.5
2022-11-14T06:43:14.808Z,41.4
2022-11-14T06:48:27.789Z,41.3
2022-11-14T06:54:10.485Z,41.3
2022-11-14T06:59:39.789Z,41.2
2022-11-14T07:05:01.702Z,41.1
2022-11-14T07:10:24.139Z,38.1
2022-11-14T07:15:45.458Z,33.6
2022-11-14T07:21:12.259Z,31.2
2022-11-14T07:26:34.275Z,29.7
2022-11-14T07:32:01.670Z,28.1
2022-11-14T07:37:23.730Z,27.1
2022-11-14T07:42:46.257Z,26.3
2022-11-14T07:48:08.648Z,25.8
2022-11-14T07:53:30.270Z,25.3
2022-11-14T07:58:56.254Z,24.9
2022-11-14T08:04:35.473Z,24.6
2022-11-14T08:09:57.035Z,24.3
2022-11-14T08:16:00.876Z,23.9
2022-11-14T08:21:23.680Z,23.8
2022-11-14T08:27:06.819Z,23.6
2022-11-14T08:32:34.040Z,23.4
2022-11-14T08:38:12.125Z,23.3
2022-11-14T08:43:50.940Z,23.2
2022-11-14T08:49:28.749Z,23.1
2022-11-14T08:55:08.592Z,23.1
2022-11-14T09:00:46.796Z,23
2022-11-14T09:06:30.347Z,23
2022-11-14T09:12:12.126Z,23
2022-11-14T09:17:55.032Z,23
2022-11-14T09:23:40.142Z,23
2022-11-14T09:29:26.753Z,23
2022-11-14T09:35:08.243Z,22.9
2022-11-14T09:40:51.271Z,22.9
2022-11-14T09:46:34.010Z,22.9
2022-11-14T09:52:17.586Z,22.9
2022-11-14T09:57:55.966Z,22.9
2022-11-14T10:03:24.274Z,22.9
2022-11-14T10:09:03.281Z,22.9
2022-11-14T10:14:41.902Z,22.9
2022-11-14T10:20:05.610Z,22.9
2022-11-14T10:25:44.322Z,22.9
2022-11-14T10:31:28.151Z,22.9
2022-11-14T10:37:13.940Z,22.9
2022-11-14T10:43:21.339Z,22.9
2022-11-14T10:48:47.521Z,22.9
2022-11-14T10:54:25.627Z,22.9
2022-11-14T11:00:43.627Z,31.9
2022-11-14T11:07:01.777Z,34.9
2022-11-14T11:13:30.743Z,43
2022-11-14T11:19:05.064Z,44.2
2022-11-14T11:24:27.704Z,45.6
2022-11-14T11:30:06.012Z,46.8
2022-11-14T11:35:44.883Z,47.8
2022-11-14T11:48:29.011Z,49.7
2022-11-14T11:53:51.479Z,50.4
2022-11-14T11:59:35.104Z,51.1
2022-11-14T12:05:04.312Z,51.7
2022-11-14T12:11:18.306Z,51.1
2022-11-14T12:17:02.475Z,51.6
2022-11-14T12:22:48.001Z,52.1
2022-11-14T12:28:26.715Z,52.5
2022-11-14T12:34:10.990Z,52.8
2022-11-14T12:39:52.059Z,53
2022-11-14T12:45:33.526Z,53.2
2022-11-14T12:51:14.127Z,53.3
2022-11-14T12:56:54.077Z,53.3
2022-11-14T13:02:38.756Z,53.4
2022-11-14T13:07:51.032Z,53.3
2022-11-14T13:13:13.959Z,53.2
2022-11-14T13:18:57.177Z,53.1
2022-11-14T13:24:37.449Z,52.8
2022-11-14T13:30:38.221Z,52.5
2022-11-14T13:36:21.758Z,52.2
2022-11-14T13:42:04.686Z,51.8
2022-11-14T13:47:43.683Z,51.4
2022-11-14T13:53:49.842Z,50.9
2022-11-14T13:59:28.522Z,50.4
2022-11-14T14:05:09.939Z,49.9
2022-11-14T14:10:53.491Z,49.3
2022-11-14T14:16:32.069Z,48.6
2022-11-14T14:22:17.013Z,47.9
2022-11-14T14:27:55.589Z,47.3
2022-11-14T14:33:38.083Z,44.2
2022-11-14T14:39:21.832Z,41.9
2022-11-14T14:45:04.822Z,40.5
2022-11-14T14:50:43.867Z,39.5
2022-11-14T14:56:26.789Z,38.8
2022-11-14T15:01:49.306Z,38.1
2022-11-14T15:07:33.229Z,37.7
2022-11-14T15:13:11.999Z,37.3
2022-11-14T15:18:57.107Z,36.9
2022-11-14T15:24:35.310Z,36.4
2022-11-14T15:29:58.146Z,36.2
2022-11-14T15:35:41.546Z,35.9
2022-11-14T15:41:50.231Z,35.6
2022-11-14T15:47:28.346Z,35.3
2022-11-14T15:53:06.590Z,35.1
2022-11-14T15:59:11.517Z,34.9
2022-11-14T16:04:48.917Z,34.7
2022-11-14T16:10:27.739Z,34.5
2022-11-14T16:15:40.663Z,34.3
2022-11-14T16:21:02.903Z,34.2
2022-11-14T16:26:29.627Z,34.1
2022-11-14T16:31:52.260Z,33.8
2022-11-14T16:37:14.758Z,33.3
2022-11-14T16:42:52.803Z,32.9
2022-11-14T16:48:07.313Z,32.5
2022-11-14T16:53:43.900Z,32.2
2022-11-14T16:59:21.765Z,32
2022-11-14T17:05:02.036Z,31.9
2022-11-14T17:10:15.129Z,31.8
2022-11-14T17:15:54.430Z,31.6
2022-11-14T17:21:32.541Z,31.5
2022-11-14T17:27:00.055Z,31.1
2022-11-14T17:31:54.914Z,30.9
2022-11-14T17:37:17.496Z,30.8
2022-11-14T17:42:54.747Z,30.1
2022-11-14T17:48:31.921Z,27
2022-11-14T17:53:59.478Z,24.4
2022-11-14T17:59:43.241Z,22.9
2022-11-14T18:05:11.793Z,21.9
2022-11-14T18:10:53.673Z,21.4
2022-11-14T18:16:17.763Z,21
2022-11-14T18:22:27.310Z,20.6
2022-11-14T18:28:05.139Z,20.4
2022-11-14T18:34:05.985Z,20.2
2022-11-14T18:39:43.320Z,20
2022-11-14T18:44:55.450Z,19.9
2022-11-14T18:50:34.478Z,19.8
2022-11-14T18:55:47.539Z,19.6
2022-11-14T19:01:10.828Z,19.6
2022-11-14T19:06:33.628Z,19.5
2022-11-14T19:12:18.025Z,19.4
2022-11-14T19:17:56.109Z,19.4
2022-11-14T19:23:38.241Z,19.3
2022-11-14T19:29:18.632Z,19.3
2022-11-14T19:34:41.506Z,19.3
2022-11-14T19:40:39.071Z,19.3
2022-11-14T19:46:19.565Z,19.2
2022-11-14T19:51:42.188Z,19.2
2022-11-14T19:57:23.176Z,19.1
2022-11-14T20:03:05.416Z,19.1
2022-11-14T20:08:44.097Z,19.1
2022-11-14T20:14:24.981Z,19
2022-11-14T20:19:49.164Z,19.2
2022-11-14T20:25:11.917Z,19.6
2022-11-14T20:30:24.761Z,20.3
2022-11-14T20:36:03.616Z,21.1
2022-11-14T20:42:04.387Z,22
2022-11-14T20:47:44.109Z,23
2022-11-14T20:53:06.153Z,24
2022-11-14T20:58:34.479Z,25.1
2022-11-14T21:04:13.455Z,26.1
2022-11-14T21:09:51.718Z,27.2
2022-11-14T21:15:29.361Z,28.1
2022-11-14T21:21:06.257Z,28.4
2022-11-14T21:26:34.686Z,28.7
2022-11-14T21:32:12.993Z,28.8
2022-11-14T21:38:10.360Z,28.9
2022-11-14T21:43:53.302Z,29.1
2022-11-14T21:49:31.358Z,29.1
2022-11-14T21:54:54.369Z,29.1
2022-11-14T22:00:03.216Z,29.2
2022-11-14T22:05:44.585Z,29.2
2022-11-14T22:11:24.605Z,29.2
2022-11-14T22:17:03.044Z,29.2
2022-11-14T22:22:30.708Z,29.2
2022-11-14T22:33:14.062Z,29.1
2022-11-14T22:38:52.744Z,29.1
2022-11-14T22:44:36.775Z,29.1
2022-11-14T22:50:13.958Z,29.1
2022-11-14T22:55:35.743Z,29.1
2022-11-14T23:00:42.383Z,29.1
2022-11-14T23:06:27.286Z,29.1
2022-11-14T23:12:05.513Z,29
2022-11-14T23:17:43.720Z,29
2022-11-14T23:23:08.251Z,28.9
2022-11-14T23:28:45.491Z,28.9
2022-11-14T23:34:23.085Z,28.9
2022-11-14T23:40:00.640Z,28.9
2022-11-14T23:45:37.626Z,28.9
2022-11-14T23:50:59.276Z,28.9
2022-11-14T23:56:36.909Z,28.8
